Van Tassell, WY (82242)

5:25 AM MST on December 29, 2014 (GMT -0700)
LEMS | Change Station
CLOSE
Current Station
Personal Weather Station
Location: Lusk, WY
Elevation: 5070 ft
Nearby Weather Stations

Elev 5070 ft 42.76 °N, 104.45 °W | Updated 3 minutes ago

Snow
Snow
4.7 °F
Feels Like 5 °F
N
3.0
Wind Variable Wind from NNE
Gusts 12.0 mph

Today
High -- | Low -- °F
--% Chance of Precip.
Yesterday
High -- | Low -- °F
Precip. -- in
7:26 AM 4:30 PM
First Quarter, 58% visible
Pressure 30.30 in
Visibility 2.5 miles
Clouds Overcast 1900 ft
Windchill 5 °F
Dew Point -0 °F
Humidity 79%
Rainfall 0.00 in
Snow Depth Not available.
UV 0 out of 12
Pollen .10 out of 12
Air Quality Not available.
Flu Activity Not available.
METAR KTOR 291153Z AUTO 02009KT 2 1/2SM -SN OVC019 M11/M14 A3015 RMK AO2 SLP260 P0000 60000 70006 T11111139 11061 21111 51023 $

More Conditions Fewer Conditions

Pressure 30.30 in
Visibility 2.5 miles
Clouds Overcast 1900 ft
Windchill 5 °F
Dew Point -0 °F
Humidity 79%
Rainfall 0.00 in
Snow Depth Not available.
UV 0 out of 12
Pollen .10 out of 12
Air Quality Not available.
Flu Activity Not available.
METAR KTOR 291153Z AUTO 02009KT 2 1/2SM -SN OVC019 M11/M14 A3015 RMK AO2 SLP260 P0000 60000 70006 T11111139 11061 21111 51023 $

More Conditions Fewer Conditions

10-Day Weather Forecast

Almanac

Astronomy

Dec. 29, 2014 Rise Set
Actual Time
Civil Twilight
Nautical Twilight
Astronomical Twilight
Moon
Length of Visible Light
Length of Day
Tomorrow will be .
, % of the Moon is Illuminated

Today's Extremes

State Highs State Lows

Community

WunderPhotos

Upload Photos

1,781,573 photos uploaded!

WunderBlogs® & News

Nearby

Air Quality

  Air Quality AQ Index Pollutant
Not available.

Snow Depth

Station Depth Elevation

Earthquake Activity

City Distance Mag. Time & Date
Minimum magnitude displayed is 2.5.

Coastal Water Temperatures

Place Temperature

Nearby Weather Stations